createdAt,value
2023-05-18T00:02:15.821Z,39.76
2023-05-18T00:04:43.081Z,39.87
2023-05-18T00:07:10.343Z,39.96
2023-05-18T00:09:37.507Z,40.10
2023-05-18T00:12:05.589Z,40.20
2023-05-18T00:14:32.574Z,40.16
2023-05-18T00:17:01.686Z,39.96
2023-05-18T00:19:29.772Z,40.13
2023-05-18T00:21:57.184Z,40.34
2023-05-18T00:24:24.435Z,40.38
2023-05-18T00:26:51.393Z,40.33
2023-05-18T00:29:18.222Z,40.24
2023-05-18T00:31:45.448Z,40.38
2023-05-18T00:34:14.536Z,40.60
2023-05-18T00:36:41.781Z,40.45
2023-05-18T00:39:09.292Z,40.48
2023-05-18T00:41:36.580Z,40.48
2023-05-18T00:44:04.832Z,40.62
2023-05-18T00:46:32.143Z,40.52
2023-05-18T00:49:01.736Z,40.35
2023-05-18T00:51:29.238Z,40.73
2023-05-18T00:53:57.623Z,40.71
2023-05-18T00:56:25.024Z,40.82
2023-05-18T00:58:57.105Z,40.68
2023-05-18T01:01:28.833Z,40.99
2023-05-18T01:03:57.694Z,40.71
2023-05-18T01:06:27.173Z,41.05
2023-05-18T01:08:54.833Z,40.69
2023-05-18T01:11:24.635Z,41.07
2023-05-18T01:14:18.215Z,40.87
2023-05-18T01:17:17.281Z,40.84
2023-05-18T01:20:40.468Z,40.71
2023-05-18T01:23:45.951Z,41.06
2023-05-18T01:26:24.769Z,41.38
2023-05-18T01:28:53.693Z,41.14
2023-05-18T01:31:20.724Z,41.42
2023-05-18T01:33:47.596Z,41.46
2023-05-18T01:36:14.469Z,41.28
2023-05-18T01:38:44.092Z,41.48
2023-05-18T01:41:27.771Z,41.24
2023-05-18T01:44:09.695Z,41.66
2023-05-18T01:47:00.717Z,41.40
2023-05-18T01:49:32.808Z,41.68
2023-05-18T01:52:07.100Z,41.66
2023-05-18T01:54:36.620Z,41.25
2023-05-18T01:57:06.642Z,41.33
2023-05-18T01:59:33.842Z,41.46
2023-05-18T02:02:02.161Z,42.02
2023-05-18T02:04:29.155Z,41.84
2023-05-18T02:06:56.316Z,41.81
2023-05-18T02:09:23.579Z,41.91
2023-05-18T02:11:50.524Z,41.79
2023-05-18T02:14:17.333Z,41.66
2023-05-18T02:16:47.004Z,42.05
2023-05-18T02:19:14.837Z,41.60
2023-05-18T02:21:43.484Z,41.68
2023-05-18T02:24:10.604Z,41.98
2023-05-18T02:26:37.657Z,42.08
2023-05-18T02:29:11.628Z,41.78
2023-05-18T02:31:38.959Z,42.02
2023-05-18T02:34:06.405Z,42.01
2023-05-18T02:36:37.606Z,42.18
2023-05-18T02:39:04.995Z,42.37
2023-05-18T02:41:34.783Z,41.91
2023-05-18T02:44:04.702Z,42.26
2023-05-18T02:46:32.403Z,42.18
2023-05-18T02:48:59.554Z,41.92
2023-05-18T02:51:26.727Z,41.96
2023-05-18T02:53:53.575Z,41.86
2023-05-18T02:56:20.430Z,42.34
2023-05-18T02:58:47.211Z,42.19
2023-05-18T03:01:14.073Z,42.36
2023-05-18T03:03:42.549Z,42.46
2023-05-18T03:06:09.954Z,42.17
2023-05-18T03:08:37.210Z,42.56
2023-05-18T03:11:04.571Z,42.48
2023-05-18T03:13:31.379Z,42.43
2023-05-18T03:15:58.554Z,42.35
2023-05-18T03:18:25.669Z,42.83
2023-05-18T03:20:52.726Z,42.66
2023-05-18T03:23:20.350Z,42.52
2023-05-18T03:25:47.332Z,42.87
2023-05-18T03:28:14.197Z,42.45
2023-05-18T03:30:41.034Z,42.77
2023-05-18T03:33:07.899Z,42.79
2023-05-18T03:35:34.777Z,42.50
2023-05-18T03:38:01.637Z,42.71
2023-05-18T03:40:29.193Z,42.91
2023-05-18T03:42:55.994Z,42.77
2023-05-18T03:45:22.881Z,42.80
2023-05-18T03:47:49.784Z,42.88
2023-05-18T03:50:16.733Z,43.07
2023-05-18T03:52:44.870Z,43.00
2023-05-18T03:55:12.139Z,43.19
2023-05-18T03:57:39.257Z,42.92
2023-05-18T04:00:09.669Z,43.24
2023-05-18T04:02:37.060Z,43.02
2023-05-18T04:05:05.359Z,43.26
2023-05-18T04:07:32.179Z,43.20
2023-05-18T04:09:59.040Z,43.16
2023-05-18T04:12:25.978Z,43.18
2023-05-18T04:14:54.425Z,43.33
2023-05-18T04:17:24.035Z,43.31
2023-05-18T04:19:51.197Z,43.34
2023-05-18T04:22:18.603Z,43.47
2023-05-18T04:24:48.550Z,43.73
2023-05-18T04:27:15.457Z,43.68
2023-05-18T04:29:43.760Z,43.96
2023-05-18T04:32:10.940Z,43.93
2023-05-18T04:34:37.978Z,43.79
2023-05-18T04:37:10.492Z,43.98
2023-05-18T04:39:39.544Z,44.04
2023-05-18T04:42:06.742Z,43.98
2023-05-18T04:44:34.125Z,44.25
2023-05-18T04:47:01.330Z,44.45
2023-05-18T04:49:28.272Z,44.14
2023-05-18T04:51:56.689Z,44.50
2023-05-18T04:54:30.749Z,44.76
2023-05-18T04:57:03.422Z,44.69
2023-05-18T04:59:30.244Z,44.57
2023-05-18T05:01:57.113Z,44.92
2023-05-18T05:04:23.974Z,44.36
2023-05-18T05:06:50.923Z,44.69
2023-05-18T05:09:18.016Z,44.42
2023-05-18T05:11:44.875Z,44.80
2023-05-18T05:14:12.052Z,45.00
2023-05-18T05:16:39.763Z,44.93
2023-05-18T05:19:07.120Z,45.04
2023-05-18T05:21:34.170Z,44.93
2023-05-18T05:24:04.814Z,44.92
2023-05-18T05:26:31.738Z,44.93
2023-05-18T05:28:58.554Z,45.01
2023-05-18T05:31:25.436Z,45.28
2023-05-18T05:33:52.264Z,45.13
2023-05-18T05:36:19.159Z,45.31
2023-05-18T05:38:45.983Z,45.20
2023-05-18T05:41:12.849Z,45.10
2023-05-18T05:43:39.649Z,45.31
2023-05-18T05:46:06.434Z,45.20
2023-05-18T05:48:33.260Z,45.25
2023-05-18T05:51:00.070Z,45.21
2023-05-18T05:53:26.937Z,45.07
2023-05-18T05:55:53.801Z,45.19
2023-05-18T05:58:20.595Z,44.76
2023-05-18T06:00:47.498Z,44.86
2023-05-18T06:03:14.600Z,44.82
2023-05-18T06:05:41.524Z,45.05
2023-05-18T06:08:08.526Z,44.94
2023-05-18T06:10:35.528Z,45.10
2023-05-18T06:13:02.457Z,44.96
2023-05-18T06:15:29.477Z,44.88
2023-05-18T06:17:56.587Z,44.72
2023-05-18T06:20:23.528Z,45.00
2023-05-18T06:22:50.368Z,44.53
2023-05-18T06:25:18.197Z,44.51
2023-05-18T06:27:46.050Z,44.44
2023-05-18T06:30:13.244Z,44.38
2023-05-18T06:32:40.189Z,44.22
2023-05-18T06:35:07.491Z,44.15
2023-05-18T06:37:34.430Z,43.73
2023-05-18T06:40:01.311Z,43.88
2023-05-18T06:42:28.455Z,43.74
2023-05-18T06:44:55.291Z,43.83
2023-05-18T06:47:22.197Z,43.43
2023-05-18T06:49:49.118Z,43.15
2023-05-18T06:52:16.362Z,43.09
2023-05-18T06:54:43.332Z,43.41
2023-05-18T06:57:10.238Z,43.24
2023-05-18T06:59:37.081Z,43.10
2023-05-18T07:02:04.281Z,43.22
2023-05-18T07:04:31.520Z,43.33
2023-05-18T07:06:58.331Z,42.87
2023-05-18T07:09:25.921Z,43.03
2023-05-18T07:11:52.768Z,42.79
2023-05-18T07:14:19.586Z,42.69
2023-05-18T07:16:47.350Z,42.49
2023-05-18T07:19:14.979Z,42.58
2023-05-18T07:21:42.215Z,42.40
2023-05-18T07:24:09.107Z,42.38
2023-05-18T07:26:36.004Z,42.37
2023-05-18T07:29:02.814Z,42.89
2023-05-18T07:31:29.685Z,42.64
2023-05-18T07:33:56.627Z,42.30
2023-05-18T07:36:24.079Z,42.31
2023-05-18T07:38:54.917Z,42.23
2023-05-18T07:41:22.956Z,41.93
2023-05-18T07:43:52.087Z,42.37
2023-05-18T07:46:19.322Z,42.30
2023-05-18T07:48:46.312Z,42.39
2023-05-18T07:51:13.199Z,42.17
2023-05-18T07:53:41.357Z,41.51
2023-05-18T07:56:08.650Z,41.57
2023-05-18T07:58:36.310Z,42.05
2023-05-18T08:01:03.790Z,41.57
2023-05-18T08:03:30.764Z,41.65
2023-05-18T08:05:57.690Z,41.41
2023-05-18T08:08:24.505Z,41.05
2023-05-18T08:10:52.278Z,41.33
2023-05-18T08:13:19.475Z,41.27
2023-05-18T08:15:50.954Z,41.56
2023-05-18T08:18:23.491Z,41.21
2023-05-18T08:20:53.777Z,41.05
2023-05-18T08:23:20.959Z,40.89
2023-05-18T08:25:47.941Z,40.78
2023-05-18T08:28:14.830Z,40.96
2023-05-18T08:30:41.773Z,40.79
2023-05-18T08:33:09.239Z,40.66
2023-05-18T08:35:36.133Z,40.71
2023-05-18T08:38:05.402Z,40.72
2023-05-18T08:40:38.088Z,40.83
2023-05-18T08:43:18.964Z,40.73
2023-05-18T08:45:57.484Z,40.80
2023-05-18T08:48:27.204Z,40.93
2023-05-18T08:50:58.250Z,41.06
2023-05-18T08:53:25.836Z,40.87
2023-05-18T08:55:57.714Z,41.00
2023-05-18T08:58:35.695Z,40.73
2023-05-18T09:01:04.330Z,40.63
2023-05-18T09:03:32.416Z,40.68
2023-05-18T09:06:00.883Z,41.14
2023-05-18T09:08:29.389Z,41.31
2023-05-18T09:10:58.863Z,40.97
2023-05-18T09:13:27.054Z,40.47
2023-05-18T09:15:54.142Z,40.90
2023-05-18T09:18:23.941Z,40.52
2023-05-18T09:20:52.129Z,40.34
2023-05-18T09:23:18.936Z,40.19
2023-05-18T09:25:49.692Z,40.43
2023-05-18T09:28:27.863Z,40.16
2023-05-18T09:30:54.930Z,39.99
2023-05-18T09:33:23.414Z,40.06
2023-05-18T09:35:51.925Z,40.19
2023-05-18T09:38:23.169Z,40.42
2023-05-18T09:40:50.848Z,40.11
2023-05-18T09:43:21.139Z,40.00
2023-05-18T09:45:49.881Z,39.33
2023-05-18T09:48:17.438Z,39.18
2023-05-18T09:50:45.413Z,38.95
2023-05-18T09:53:15.572Z,39.17
2023-05-18T09:55:49.798Z,38.87
2023-05-18T09:58:17.089Z,39.04
2023-05-18T10:00:54.009Z,39.00
2023-05-18T10:03:25.350Z,38.79
2023-05-18T10:05:52.192Z,38.80
2023-05-18T10:08:19.164Z,39.06
2023-05-18T10:10:49.627Z,39.03
2023-05-18T10:13:19.862Z,39.23
2023-05-18T10:15:53.846Z,38.94
2023-05-18T10:18:27.543Z,38.90
2023-05-18T10:20:59.894Z,38.97
2023-05-18T10:23:31.498Z,39.11
2023-05-18T10:25:58.853Z,38.35
2023-05-18T10:28:39.018Z,38.74
2023-05-18T10:31:08.586Z,38.48
2023-05-18T10:33:37.899Z,38.16
2023-05-18T10:36:06.317Z,38.07
2023-05-18T10:38:33.955Z,37.40
2023-05-18T10:41:01.722Z,37.55
2023-05-18T10:43:29.125Z,37.86
2023-05-18T10:46:01.211Z,37.24
2023-05-18T10:48:30.167Z,37.17
2023-05-18T10:50:58.499Z,36.75
2023-05-18T10:53:27.327Z,36.77
2023-05-18T10:55:54.765Z,37.18
2023-05-18T10:58:29.791Z,37.02
2023-05-18T11:00:59.889Z,36.61
2023-05-18T11:03:28.461Z,36.21
2023-05-18T11:06:08.213Z,36.56
2023-05-18T11:08:51.408Z,36.95
2023-05-18T11:11:19.792Z,37.11
2023-05-18T11:13:51.622Z,36.86
2023-05-18T11:16:20.455Z,36.61
2023-05-18T11:18:50.133Z,36.40
2023-05-18T11:21:23.997Z,36.34
2023-05-18T11:24:22.062Z,36.68
2023-05-18T11:26:55.586Z,36.48
2023-05-18T11:29:57.814Z,36.21
2023-05-18T11:32:34.105Z,36.41
2023-05-18T11:35:01.073Z,36.32
2023-05-18T11:37:40.224Z,36.42
2023-05-18T11:40:12.044Z,36.60
2023-05-18T11:42:39.282Z,36.33
2023-05-18T11:45:11.393Z,36.58
2023-05-18T11:47:42.839Z,36.13
2023-05-18T11:50:14.235Z,35.62
2023-05-18T11:52:51.625Z,35.41
2023-05-18T11:55:20.613Z,35.51
2023-05-18T11:57:52.717Z,35.51
2023-05-18T12:00:21.060Z,35.29
2023-05-18T12:02:49.271Z,35.55
2023-05-18T12:05:17.137Z,35.28
2023-05-18T12:07:44.950Z,34.55
2023-05-18T12:10:17.004Z,34.53
2023-05-18T12:12:47.906Z,34.40
2023-05-18T12:15:25.083Z,34.62
2023-05-18T12:17:52.145Z,34.39
2023-05-18T12:20:21.723Z,34.27
2023-05-18T12:22:52.090Z,34.39
2023-05-18T12:25:21.490Z,34.36
2023-05-18T12:27:48.655Z,33.71
2023-05-18T12:30:23.766Z,33.45
2023-05-18T12:32:56.627Z,33.85
2023-05-18T12:35:28.928Z,34.16
2023-05-18T12:38:01.778Z,33.41
2023-05-18T12:40:42.683Z,33.64
2023-05-18T12:43:09.591Z,32.82
2023-05-18T12:45:36.387Z,32.68
2023-05-18T12:48:07.123Z,32.06
2023-05-18T12:50:34.809Z,32.45
2023-05-18T12:53:01.794Z,32.50
2023-05-18T12:55:30.920Z,32.61
2023-05-18T12:58:17.877Z,32.47
2023-05-18T13:00:47.779Z,32.20
2023-05-18T13:03:16.867Z,32.59
2023-05-18T13:05:46.034Z,32.76
2023-05-18T13:08:22.478Z,32.89
2023-05-18T13:11:01.278Z,32.52
2023-05-18T13:13:36.448Z,32.71
2023-05-18T13:16:03.301Z,32.35
2023-05-18T13:18:30.141Z,32.51
2023-05-18T13:20:58.517Z,32.02
2023-05-18T13:23:28.608Z,32.44
2023-05-18T13:25:58.261Z,32.02
2023-05-18T13:28:26.909Z,31.83
2023-05-18T13:30:53.765Z,31.51
2023-05-18T13:33:21.332Z,31.39
2023-05-18T13:35:49.606Z,31.10
2023-05-18T13:38:16.613Z,31.10
2023-05-18T13:40:43.489Z,30.78
2023-05-18T13:43:12.034Z,30.53
2023-05-18T13:45:42.277Z,30.69
2023-05-18T13:48:10.644Z,30.51
2023-05-18T13:50:38.726Z,30.79
2023-05-18T13:53:06.619Z,30.43
2023-05-18T13:55:33.863Z,30.66
2023-05-18T13:58:00.864Z,30.21
2023-05-18T14:00:27.803Z,29.95
2023-05-18T14:02:54.964Z,29.36
2023-05-18T14:05:22.263Z,29.55
2023-05-18T14:07:50.194Z,29.60
2023-05-18T14:10:17.023Z,29.68
2023-05-18T14:12:44.210Z,29.34
2023-05-18T14:15:13.877Z,29.95
2023-05-18T14:17:42.552Z,29.65
2023-05-18T14:20:11.216Z,29.90
2023-05-18T14:22:38.436Z,29.92
2023-05-18T14:25:05.956Z,29.99
2023-05-18T14:27:32.785Z,29.71
2023-05-18T14:29:59.611Z,29.45
2023-05-18T14:32:26.544Z,29.48
2023-05-18T14:34:55.791Z,29.35
2023-05-18T14:37:22.770Z,29.98
2023-05-18T14:39:49.668Z,29.82
2023-05-18T14:42:16.720Z,29.67
2023-05-18T14:44:43.590Z,29.60
2023-05-18T14:47:10.906Z,29.54
2023-05-18T14:49:37.963Z,29.29
2023-05-18T14:52:05.509Z,29.52
2023-05-18T14:54:32.471Z,29.44
2023-05-18T14:56:59.708Z,29.29
2023-05-18T14:59:26.601Z,29.45
2023-05-18T15:01:53.556Z,28.82
2023-05-18T15:04:21.827Z,29.15
2023-05-18T15:06:49.639Z,29.17
2023-05-18T15:09:16.654Z,29.21
2023-05-18T15:11:43.571Z,29.30
2023-05-18T15:14:10.496Z,29.20
2023-05-18T15:16:37.522Z,29.34
2023-05-18T15:19:05.216Z,29.38
2023-05-18T15:21:32.169Z,29.49
2023-05-18T15:23:58.970Z,29.29
2023-05-18T15:26:28.899Z,29.68
2023-05-18T15:28:56.347Z,29.16
2023-05-18T15:31:23.231Z,29.42
2023-05-18T15:33:50.090Z,29.38
2023-05-18T15:36:18.061Z,29.14
2023-05-18T15:38:45.231Z,29.17
2023-05-18T15:41:12.045Z,29.15
2023-05-18T15:43:39.273Z,29.24
2023-05-18T15:46:06.237Z,29.15
2023-05-18T15:48:33.103Z,28.62
2023-05-18T15:51:00.098Z,28.93
2023-05-18T15:53:26.951Z,28.94
2023-05-18T15:55:58.555Z,28.70
2023-05-18T15:58:26.447Z,28.67
2023-05-18T16:00:53.395Z,28.75
2023-05-18T16:03:20.335Z,28.68
2023-05-18T16:05:47.240Z,29.12
2023-05-18T16:08:14.134Z,29.39
2023-05-18T16:10:41.404Z,29.45
2023-05-18T16:13:08.313Z,29.13
2023-05-18T16:15:35.487Z,29.11
2023-05-18T16:18:02.848Z,29.33
2023-05-18T16:20:30.121Z,29.13
2023-05-18T16:22:57.396Z,29.37
2023-05-18T16:25:24.338Z,29.01
2023-05-18T16:27:51.183Z,29.36
2023-05-18T16:30:18.290Z,29.01
2023-05-18T16:32:45.290Z,29.19
2023-05-18T16:35:12.327Z,29.32
2023-05-18T16:37:39.363Z,29.07
2023-05-18T16:40:07.364Z,29.16
2023-05-18T16:42:34.609Z,28.96
2023-05-18T16:45:04.899Z,29.17
2023-05-18T16:47:32.536Z,28.86
2023-05-18T16:50:00.204Z,29.10
2023-05-18T16:52:27.317Z,28.52
2023-05-18T16:54:54.232Z,28.44
2023-05-18T16:57:22.167Z,28.74
2023-05-18T16:59:49.196Z,28.87
2023-05-18T17:02:17.581Z,28.82
2023-05-18T17:04:49.574Z,28.60
2023-05-18T17:07:16.811Z,28.64
2023-05-18T17:09:43.736Z,28.61
2023-05-18T17:12:11.362Z,28.65
2023-05-18T17:14:38.632Z,28.31
2023-05-18T17:17:06.421Z,28.26
2023-05-18T17:19:34.783Z,28.26
2023-05-18T17:22:06.000Z,28.15
2023-05-18T17:24:32.939Z,28.32
2023-05-18T17:26:59.783Z,28.11
2023-05-18T17:29:27.214Z,28.00
2023-05-18T17:31:54.363Z,28.39
2023-05-18T17:34:23.713Z,28.40
2023-05-18T17:36:50.668Z,28.54
2023-05-18T17:39:23.555Z,28.13
2023-05-18T17:41:52.407Z,28.06
2023-05-18T17:44:19.255Z,28.13
2023-05-18T17:46:46.632Z,28.39
2023-05-18T17:49:14.211Z,28.13
2023-05-18T17:51:41.702Z,28.32
2023-05-18T17:54:08.812Z,28.41
2023-05-18T17:56:36.050Z,28.83
2023-05-18T17:59:03.993Z,28.61
2023-05-18T18:01:31.074Z,28.78
2023-05-18T18:03:58.423Z,28.79
2023-05-18T18:06:25.843Z,28.94
2023-05-18T18:08:55.402Z,28.92
2023-05-18T18:11:22.770Z,28.87
2023-05-18T18:13:50.807Z,28.86
2023-05-18T18:16:18.515Z,28.95
2023-05-18T18:18:45.604Z,29.11
2023-05-18T18:21:12.883Z,28.87
2023-05-18T18:23:40.582Z,28.90
2023-05-18T18:26:08.294Z,29.25
2023-05-18T18:28:35.445Z,29.45
2023-05-18T18:31:03.265Z,29.24
2023-05-18T18:33:30.469Z,29.21
2023-05-18T18:35:57.840Z,29.25
2023-05-18T18:38:26.989Z,29.47
2023-05-18T18:40:59.801Z,29.42
2023-05-18T18:43:27.799Z,29.46
2023-05-18T18:45:55.834Z,29.80
2023-05-18T18:48:23.458Z,29.87
2023-05-18T18:50:50.334Z,30.07
2023-05-18T18:53:17.163Z,30.14
2023-05-18T18:55:44.054Z,30.29
2023-05-18T18:58:11.010Z,30.42
2023-05-18T19:00:37.942Z,30.38
2023-05-18T19:03:04.845Z,30.42
2023-05-18T19:05:32.215Z,30.50
2023-05-18T19:07:59.321Z,30.56
2023-05-18T19:10:26.174Z,30.70
2023-05-18T19:12:53.189Z,30.71
2023-05-18T19:15:21.407Z,30.93
2023-05-18T19:17:54.355Z,30.86
2023-05-18T19:20:23.007Z,30.95
2023-05-18T19:22:49.943Z,31.22
2023-05-18T19:25:17.109Z,31.29
2023-05-18T19:27:43.979Z,31.64
2023-05-18T19:30:13.127Z,31.72
2023-05-18T19:32:40.736Z,31.91
2023-05-18T19:35:07.817Z,31.99
2023-05-18T19:37:34.672Z,31.97
2023-05-18T19:40:01.480Z,32.10
2023-05-18T19:42:28.298Z,32.52
2023-05-18T19:44:55.138Z,32.60
2023-05-18T19:47:21.998Z,32.53
2023-05-18T19:49:48.791Z,32.90
2023-05-18T19:52:18.207Z,32.97
2023-05-18T19:54:45.054Z,32.91
2023-05-18T19:57:12.086Z,32.89
2023-05-18T19:59:38.936Z,32.96
2023-05-18T20:02:09.310Z,33.09
2023-05-18T20:04:36.129Z,32.97
2023-05-18T20:07:02.963Z,32.81
2023-05-18T20:09:30.779Z,33.11
2023-05-18T20:11:58.241Z,32.78
2023-05-18T20:14:26.815Z,32.92
2023-05-18T20:16:55.646Z,32.95
2023-05-18T20:19:22.678Z,32.73
2023-05-18T20:21:49.916Z,32.88
2023-05-18T20:24:16.811Z,32.79
2023-05-18T20:26:43.682Z,32.81
2023-05-18T20:29:10.782Z,32.76
2023-05-18T20:31:37.727Z,33.10
2023-05-18T20:34:06.273Z,33.08
2023-05-18T20:36:33.197Z,32.92
2023-05-18T20:39:00.111Z,32.89
2023-05-18T20:41:30.021Z,32.99
2023-05-18T20:43:57.281Z,33.02
2023-05-18T20:46:24.955Z,32.99
2023-05-18T20:48:52.518Z,33.24
2023-05-18T20:51:21.164Z,33.44
2023-05-18T20:53:49.433Z,33.42
2023-05-18T20:56:16.306Z,33.95
2023-05-18T20:58:48.684Z,33.71
2023-05-18T21:01:16.763Z,33.67
2023-05-18T21:03:45.246Z,34.01
2023-05-18T21:06:15.046Z,34.10
2023-05-18T21:08:42.384Z,34.16
2023-05-18T21:11:10.394Z,34.05
2023-05-18T21:13:37.305Z,34.06
2023-05-18T21:16:08.561Z,34.25
2023-05-18T21:18:35.960Z,34.29
2023-05-18T21:21:03.828Z,34.34
2023-05-18T21:23:30.763Z,34.56
2023-05-18T21:25:58.216Z,34.57
2023-05-18T21:28:25.247Z,34.51
2023-05-18T21:30:52.660Z,35.00
2023-05-18T21:33:20.007Z,34.74
2023-05-18T21:35:47.101Z,34.86
2023-05-18T21:38:13.993Z,34.88
2023-05-18T21:40:43.549Z,35.16
2023-05-18T21:43:10.899Z,35.11
2023-05-18T21:45:40.963Z,35.09
2023-05-18T21:48:08.209Z,35.25
2023-05-18T21:50:35.595Z,35.29
2023-05-18T21:53:03.413Z,35.30
2023-05-18T21:55:31.720Z,35.32
2023-05-18T21:57:58.577Z,35.53
2023-05-18T22:00:25.825Z,35.63
2023-05-18T22:02:52.770Z,35.63
2023-05-18T22:05:19.863Z,35.52
2023-05-18T22:07:46.668Z,35.51
2023-05-18T22:10:13.621Z,35.49
2023-05-18T22:12:43.323Z,35.49
2023-05-18T22:15:10.907Z,35.43
2023-05-18T22:17:38.925Z,35.35
2023-05-18T22:20:08.962Z,35.62
2023-05-18T22:22:35.835Z,35.61
2023-05-18T22:25:02.710Z,35.40
2023-05-18T22:27:29.980Z,35.39
2023-05-18T22:29:57.124Z,35.54
2023-05-18T22:32:24.311Z,35.79
2023-05-18T22:34:51.835Z,35.75
2023-05-18T22:37:18.692Z,35.58
2023-05-18T22:39:45.582Z,35.65
2023-05-18T22:42:12.414Z,35.88
2023-05-18T22:44:39.233Z,36.08
2023-05-18T22:47:06.327Z,35.92
2023-05-18T22:49:35.649Z,36.26
2023-05-18T22:52:06.490Z,36.00
2023-05-18T22:54:33.486Z,36.14
2023-05-18T22:57:00.332Z,36.21
2023-05-18T22:59:28.588Z,36.24
2023-05-18T23:01:55.604Z,36.44
2023-05-18T23:04:22.527Z,36.33
2023-05-18T23:06:50.698Z,36.55
2023-05-18T23:09:18.361Z,36.69
2023-05-18T23:11:45.204Z,36.67
2023-05-18T23:14:12.726Z,36.61
2023-05-18T23:16:42.934Z,36.96
2023-05-18T23:19:12.319Z,36.83
2023-05-18T23:21:40.372Z,36.88
2023-05-18T23:24:11.982Z,37.04
2023-05-18T23:26:42.056Z,37.12
2023-05-18T23:29:09.272Z,37.37
2023-05-18T23:31:36.766Z,37.28
2023-05-18T23:34:03.925Z,37.26
2023-05-18T23:36:35.068Z,37.25
2023-05-18T23:39:02.485Z,37.25
2023-05-18T23:41:31.924Z,37.50
2023-05-18T23:44:00.707Z,37.77
2023-05-18T23:46:28.191Z,37.63
2023-05-18T23:48:55.374Z,37.75
2023-05-18T23:51:22.536Z,37.86
2023-05-18T23:53:51.304Z,38.04
2023-05-18T23:56:18.483Z,37.91
2023-05-18T23:58:46.948Z,38.11
